Time;durP1;ratioP1;P1;durP2;ratioP2;P2;SDS_P1;SDS_P2;PMS_P1;PMS_P2;Temp;Humidity;BMP_temperature;BMP_pressure;BME280_temperature;BME280_humidity;BME280_pressure;Samples;Min_cycle;Max_cycle;Signal;HPM_P1;HPM_P2
2022/01/03 00:01:56;;;;;;;2.00;1.10;;;12.30;1.00;;;;;;5071322;28;20437;-82
2022/01/03 00:04:23;;;;;;;2.40;1.17;;;12.30;1.00;;;;;;5069932;28;21072;-78
2022/01/03 00:06:52;;;;;;;2.57;1.47;;;12.40;1.00;;;;;;5070720;28;20455;-82
2022/01/03 00:09:19;;;;;;;4.30;1.40;;;12.50;1.00;;;;;;5070592;28;20460;-81
2022/01/03 00:11:46;;;;;;;2.93;1.30;;;12.50;1.00;;;;;;5071039;28;20453;-81
2022/01/03 00:14:16;;;;;;;4.20;1.30;;;;;;;;;;5070449;28;20449;-82
2022/01/03 00:16:43;;;;;;;4.07;1.33;;;;;;;;;;5071135;28;20445;-82
2022/01/03 00:19:10;;;;;;;2.27;1.17;;;;;;;;;;5070308;28;20945;-82
2022/01/03 00:21:44;;;;;;;3.57;1.20;;;12.60;1.00;;;;;;5070524;28;20460;-82
2022/01/03 00:24:14;;;;;;;3.40;1.13;;;12.80;1.00;;;;;;5070038;28;20475;-83
2022/01/03 00:26:43;;;;;;;4.37;1.20;;;12.80;1.00;;;;;;5070477;28;20442;-83
2022/01/03 00:29:16;;;;;;;3.43;1.30;;;12.90;1.00;;;;;;5070351;28;20444;-82
2022/01/03 00:31:43;;;;;;;2.70;1.43;;;12.80;1.00;;;;;;5071490;28;20452;-82
2022/01/03 00:34:15;;;;;;;3.90;1.30;;;12.80;1.00;;;;;;5074164;28;20457;-82
2022/01/03 00:36:44;;;;;;;3.10;1.00;;;12.80;1.00;;;;;;5074265;28;20451;-83
2022/01/03 00:39:14;;;;;;;3.17;1.87;;;13.00;1.00;;;;;;5073580;28;20963;-82
2022/01/03 00:41:43;;;;;;;3.80;1.40;;;12.90;1.00;;;;;;5074937;28;20481;-83
2022/01/03 00:44:11;;;;;;;7.30;1.20;;;12.80;1.00;;;;;;5073562;28;20577;-83
2022/01/03 00:46:39;;;;;;;2.53;1.33;;;12.80;1.00;;;;;;5073838;28;20788;-82
2022/01/03 00:49:06;;;;;;;1.57;1.17;;;12.80;1.00;;;;;;5073516;28;20449;-82
2022/01/03 00:51:33;;;;;;;1.93;1.00;;;13.00;1.00;;;;;;5073654;28;20491;-81
2022/01/03 00:54:00;;;;;;;4.00;1.20;;;12.90;1.00;;;;;;5073861;28;20459;-71
2022/01/03 00:56:34;;;;;;;3.50;1.37;;;12.90;1.00;;;;;;5078145;28;20451;-82
2022/01/03 00:59:06;;;;;;;3.43;1.50;;;12.90;1.00;;;;;;5089875;28;20430;-71
2022/01/03 01:01:36;;;;;;;3.40;1.53;;;12.90;1.00;;;;;;5081927;28;20425;-75
2022/01/03 01:04:07;;;;;;;3.70;1.53;;;12.80;1.00;;;;;;5091466;28;20548;-73
2022/01/03 01:06:36;;;;;;;5.00;1.30;;;12.80;1.00;;;;;;5084158;28;20476;-82
2022/01/03 01:09:06;;;;;;;1.60;0.93;;;12.80;1.00;;;;;;5073818;28;20540;-81
2022/01/03 01:11:35;;;;;;;3.80;1.47;;;12.60;1.00;;;;;;5074373;28;20448;-81
2022/01/03 01:14:03;;;;;;;3.27;1.57;;;12.70;1.00;;;;;;5073275;28;20453;-81
2022/01/03 01:16:30;;;;;;;2.80;1.67;;;12.70;1.00;;;;;;5073507;28;20450;-82
2022/01/03 01:18:57;;;;;;;5.23;1.20;;;12.70;1.00;;;;;;5073626;28;20452;-82
2022/01/03 01:21:25;;;;;;;2.93;1.03;;;12.70;1.00;;;;;;5072678;28;20464;-82
2022/01/03 01:23:53;;;;;;;4.17;1.30;;;12.70;1.00;;;;;;5073138;28;20485;-81
2022/01/03 01:29:06;;;;;;;3.73;1.43;;;12.60;1.00;;;;;;5072701;28;20782;-81
2022/01/03 01:31:36;;;;;;;1.93;1.73;;;12.60;1.00;;;;;;5073040;28;20933;-82
2022/01/03 01:34:06;;;;;;;5.10;1.43;;;12.60;1.00;;;;;;5073017;28;20454;-81
2022/01/03 01:36:34;;;;;;;3.67;1.30;;;12.60;1.00;;;;;;5073119;28;20463;-81
2022/01/03 01:39:04;;;;;;;1.97;1.33;;;12.60;1.00;;;;;;5073142;28;20520;-74
2022/01/03 01:41:33;;;;;;;2.73;1.30;;;12.60;1.00;;;;;;5073035;28;20452;-78
2022/01/03 01:44:01;;;;;;;2.53;1.30;;;12.60;1.00;;;;;;5072436;28;20477;-82
2022/01/03 01:46:30;;;;;;;4.83;2.13;;;12.60;1.00;;;;;;5072748;28;20942;-82
2022/01/03 01:48:57;;;;;;;3.27;1.50;;;12.50;1.00;;;;;;5073481;28;21025;-83
2022/01/03 01:51:25;;;;;;;3.10;1.53;;;12.50;1.00;;;;;;5072573;28;20485;-83
2022/01/03 01:53:54;;;;;;;3.70;1.43;;;12.40;1.00;;;;;;5073683;28;20441;-82
2022/01/03 01:56:24;;;;;;;2.00;1.10;;;12.50;1.00;;;;;;5072776;28;20453;-82
2022/01/03 01:59:12;;;;;;;2.00;1.10;;;12.50;1.00;;;;;;5073261;28;20908;-82
2022/01/03 02:01:49;;;;;;;3.53;1.27;;;12.50;1.00;;;;;;5060346;28;20438;-82
2022/01/03 02:04:32;;;;;;;2.50;1.10;;;12.50;1.00;;;;;;5072263;28;20473;-80
2022/01/03 02:07:25;;;;;;;3.53;1.30;;;12.50;1.00;;;;;;5073684;28;20446;-82
2022/01/03 02:10:06;;;;;;;4.30;1.20;;;12.50;1.00;;;;;;5073047;28;20496;-82
2022/01/03 02:12:37;;;;;;;3.33;1.00;;;12.50;1.00;;;;;;5073484;28;20445;-81
2022/01/03 02:15:08;;;;;;;4.30;1.43;;;12.40;1.00;;;;;;5072696;28;20540;-81
2022/01/03 02:17:36;;;;;;;2.70;1.13;;;12.40;1.00;;;;;;5073356;28;20445;-82
2022/01/03 02:20:08;;;;;;;2.90;1.73;;;12.40;1.00;;;;;;5072910;28;20526;-82
2022/01/03 02:22:36;;;;;;;2.60;1.80;;;12.40;1.00;;;;;;5072992;28;20461;-83
2022/01/03 02:25:04;;;;;;;3.53;1.33;;;12.30;1.00;;;;;;5072022;28;20485;-81
2022/01/03 02:27:31;;;;;;;3.20;1.40;;;12.30;1.00;;;;;;5073211;28;20445;-77
2022/01/03 02:29:58;;;;;;;4.60;1.10;;;12.30;1.00;;;;;;5072978;28;20959;-82
2022/01/03 02:32:25;;;;;;;3.30;1.33;;;12.30;1.00;;;;;;5072804;28;20446;-82
2022/01/03 02:34:52;;;;;;;2.80;1.27;;;12.40;1.00;;;;;;5072584;28;20456;-83
2022/01/03 02:37:23;;;;;;;5.87;1.80;;;12.30;1.00;;;;;;5072149;28;20540;-82
2022/01/03 02:39:51;;;;;;;1.43;1.10;;;12.30;1.00;;;;;;5072914;28;20473;-82
2022/01/03 02:42:22;;;;;;;3.30;1.10;;;12.30;1.00;;;;;;5072223;28;20445;-82
2022/01/03 02:44:49;;;;;;;1.50;1.20;;;12.30;1.00;;;;;;5071777;28;20993;-83
2022/01/03 02:47:22;;;;;;;2.50;1.23;;;12.20;1.00;;;;;;5071400;28;20959;-80
2022/01/03 02:49:49;;;;;;;3.00;1.30;;;12.20;1.00;;;;;;5071935;28;20452;-82
2022/01/03 02:52:16;;;;;;;5.43;1.90;;;12.20;1.00;;;;;;5071483;28;20481;-81
2022/01/03 02:54:44;;;;;;;6.47;1.27;;;12.20;1.00;;;;;;5071384;28;20453;-82
2022/01/03 02:57:11;;;;;;;2.30;1.40;;;12.20;1.00;;;;;;5071056;28;20536;-82
2022/01/03 02:59:38;;;;;;;2.87;1.43;;;12.20;1.00;;;;;;5071853;28;20437;-82
2022/01/03 03:02:05;;;;;;;2.20;1.30;;;12.20;1.00;;;;;;5070781;28;20467;-83
2022/01/03 03:04:32;;;;;;;4.27;1.23;;;12.20;1.00;;;;;;5071148;28;20841;-82
2022/01/03 03:06:59;;;;;;;3.67;1.43;;;12.10;1.00;;;;;;5071839;28;20445;-82
2022/01/03 03:09:26;;;;;;;2.70;1.00;;;12.00;1.00;;;;;;5071333;28;20456;-82
2022/01/03 03:11:55;;;;;;;6.50;1.00;;;12.00;1.00;;;;;;5071499;28;20984;-82
2022/01/03 03:14:22;;;;;;;2.10;1.33;;;12.10;1.00;;;;;;5070708;28;20465;-82
2022/01/03 03:16:49;;;;;;;5.50;1.20;;;12.00;1.00;;;;;;5071658;28;20453;-82
2022/01/03 03:19:15;;;;;;;4.40;1.70;;;11.90;1.00;;;;;;5070988;28;20814;-80
2022/01/03 03:21:42;;;;;;;3.60;1.37;;;12.00;1.00;;;;;;5071657;28;20551;-83
2022/01/03 03:24:09;;;;;;;3.50;1.30;;;12.00;1.00;;;;;;5069943;28;20487;-82
2022/01/03 03:26:36;;;;;;;2.50;1.30;;;11.90;1.00;;;;;;5071564;28;20449;-82
2022/01/03 03:29:04;;;;;;;2.40;1.33;;;11.80;1.00;;;;;;5071078;28;20806;-82
2022/01/03 03:31:31;;;;;;;6.27;1.47;;;11.80;1.00;;;;;;5071156;28;20455;-77
2022/01/03 03:33:58;;;;;;;2.00;1.10;;;11.80;1.00;;;;;;5071092;28;20521;-82
2022/01/03 03:36:25;;;;;;;5.37;1.50;;;11.80;1.00;;;;;;5070626;28;20452;-82
2022/01/03 03:38:52;;;;;;;1.83;1.20;;;11.70;1.00;;;;;;5071219;28;20466;-82
2022/01/03 03:41:20;;;;;;;4.97;1.33;;;11.60;1.00;;;;;;5076774;28;20445;-82
2022/01/03 03:43:46;;;;;;;2.40;1.30;;;11.70;1.00;;;;;;5089252;28;20477;-79
2022/01/03 03:46:15;;;;;;;1.10;0.90;;;11.70;1.00;;;;;;5092145;28;20464;-74
2022/01/03 03:48:42;;;;;;;2.83;1.27;;;11.60;1.00;;;;;;5087480;28;20468;-82
2022/01/03 03:51:09;;;;;;;1.93;1.30;;;11.60;1.00;;;;;;5080901;28;20536;-81
2022/01/03 03:53:36;;;;;;;2.57;0.93;;;11.60;1.00;;;;;;5073342;28;20493;-81
2022/01/03 03:56:03;;;;;;;9.23;1.50;;;11.60;1.00;;;;;;5071372;28;20445;-81
2022/01/03 03:58:29;;;;;;;1.37;1.17;;;11.60;1.00;;;;;;5071610;28;20445;-82
2022/01/03 04:00:56;;;;;;;1.97;1.40;;;11.70;1.00;;;;;;5071056;28;20464;-82
2022/01/03 04:03:25;;;;;;;6.57;1.27;;;11.70;1.00;;;;;;5070568;28;20453;-82
2022/01/03 04:05:52;;;;;;;5.80;1.57;;;11.70;1.00;;;;;;5070613;28;20549;-81
2022/01/03 04:08:18;;;;;;;2.77;1.20;;;11.70;1.00;;;;;;5073585;28;20488;-82
2022/01/03 04:10:45;;;;;;;5.37;1.93;;;11.70;1.00;;;;;;5074583;28;20964;-78
2022/01/03 04:13:12;;;;;;;1.90;1.70;;;11.70;1.00;;;;;;5074234;28;20459;-82
2022/01/03 04:15:39;;;;;;;4.80;1.67;;;11.70;1.00;;;;;;5074497;28;20464;-83
2022/01/03 04:18:06;;;;;;;7.43;1.90;;;11.80;1.00;;;;;;5074181;28;20449;-83
2022/01/03 04:20:34;;;;;;;3.57;1.30;;;11.70;1.00;;;;;;5074559;28;20457;-82
2022/01/03 04:23:01;;;;;;;8.73;1.33;;;11.60;1.00;;;;;;5073848;28;20452;-74
2022/01/03 04:25:28;;;;;;;3.30;1.87;;;11.70;1.00;;;;;;5073988;28;20488;-82
2022/01/03 04:27:55;;;;;;;6.03;1.20;;;11.70;1.00;;;;;;5074335;28;20956;-83
2022/01/03 04:30:22;;;;;;;2.87;0.90;;;11.70;1.00;;;;;;5073603;28;20937;-83
2022/01/03 04:32:49;;;;;;;4.77;1.97;;;11.60;1.00;;;;;;5074619;28;20462;-83
2022/01/03 04:35:15;;;;;;;2.80;1.20;;;11.60;1.00;;;;;;5073454;28;20457;-81
2022/01/03 04:37:44;;;;;;;7.23;1.30;;;11.60;1.00;;;;;;5074678;28;20453;-83
2022/01/03 04:40:11;;;;;;;4.23;1.37;;;11.60;1.00;;;;;;5073537;28;20445;-83
2022/01/03 04:42:38;;;;;;;2.33;1.27;;;11.60;1.00;;;;;;5074479;28;20525;-83
2022/01/03 04:45:06;;;;;;;4.40;1.30;;;11.70;1.00;;;;;;5073487;28;20480;-83
2022/01/03 04:47:33;;;;;;;2.70;1.30;;;11.70;1.00;;;;;;5074387;28;20449;-83
2022/01/03 04:50:00;;;;;;;2.43;1.43;;;11.70;1.00;;;;;;5074385;28;20793;-83
2022/01/03 04:52:27;;;;;;;3.13;1.17;;;11.70;1.00;;;;;;5073954;28;20572;-83
2022/01/03 04:54:56;;;;;;;2.67;1.27;;;11.70;1.00;;;;;;5073530;28;20460;-82
2022/01/03 04:57:22;;;;;;;3.10;1.00;;;11.60;12.30;;;;;;5073693;28;20449;-84
2022/01/03 04:59:49;;;;;;;4.40;1.80;;;11.50;99.90;;;;;;5073991;28;20437;-83
2022/01/03 05:02:16;;;;;;;4.57;1.40;;;11.40;1.00;;;;;;5073689;28;20454;-83
2022/01/03 05:04:43;;;;;;;2.40;1.23;;;11.40;51.70;;;;;;5073473;28;20484;-83
2022/01/03 05:07:10;;;;;;;3.87;1.30;;;11.30;1.00;;;;;;5073362;28;20449;-83
2022/01/03 05:09:37;;;;;;;5.13;2.20;;;11.30;99.90;;;;;;5073457;28;20963;-83
2022/01/03 05:12:06;;;;;;;2.43;1.20;;;11.30;99.90;;;;;;5073418;28;20533;-82
2022/01/03 05:14:33;;;;;;;4.40;1.10;;;11.20;1.00;;;;;;5060239;28;20445;-83
2022/01/03 05:17:00;;;;;;;3.57;1.50;;;11.10;26.30;;;;;;5073778;28;20921;-82
2022/01/03 05:19:27;;;;;;;4.90;1.50;;;11.00;99.90;;;;;;5072689;28;20445;-82
2022/01/03 05:21:54;;;;;;;10.20;1.80;;;11.00;99.90;;;;;;5074012;28;20548;-82
2022/01/03 05:24:21;;;;;;;4.90;1.23;;;11.00;1.00;;;;;;5072247;28;20485;-82
2022/01/03 05:26:48;;;;;;;4.23;1.20;;;11.00;1.00;;;;;;5073596;28;20538;-82
2022/01/03 05:29:16;;;;;;;4.57;1.70;;;10.90;1.00;;;;;;5073070;28;20450;-82
2022/01/03 05:31:43;;;;;;;4.00;1.60;;;10.90;99.90;;;;;;5073156;28;20867;-82
2022/01/03 05:34:10;;;;;;;5.10;1.47;;;10.90;99.90;;;;;;5072451;28;20461;-82
2022/01/03 05:36:37;;;;;;;4.27;1.37;;;11.00;1.00;;;;;;5072774;28;20451;-82
2022/01/03 05:39:04;;;;;;;10.83;1.97;;;11.00;1.00;;;;;;5072568;28;20446;-82
2022/01/03 05:41:32;;;;;;;3.80;1.47;;;11.00;99.90;;;;;;5073124;28;20450;-77
2022/01/03 05:43:59;;;;;;;5.50;1.67;;;10.90;99.90;;;;;;5072805;28;20507;-82
2022/01/03 05:46:27;;;;;;;4.40;1.67;;;10.80;99.90;;;;;;5073069;28;20488;-81
2022/01/03 05:48:54;;;;;;;7.10;2.27;;;10.90;1.00;;;;;;5072853;28;20456;-82
2022/01/03 05:51:21;;;;;;;10.40;2.13;;;10.90;1.00;;;;;;5071710;28;20485;-82
2022/01/03 05:53:48;;;;;;;6.10;2.13;;;11.00;3.20;;;;;;5072847;28;20801;-77
2022/01/03 05:56:15;;;;;;;2.63;1.53;;;10.90;34.70;;;;;;5072002;28;20967;-82
2022/01/03 05:58:42;;;;;;;3.53;1.47;;;10.80;99.90;;;;;;5072896;28;20441;-82
2022/01/03 06:01:09;;;;;;;5.00;2.30;;;10.70;99.90;;;;;;5072138;28;20465;-82
2022/01/03 06:03:39;;;;;;;3.40;1.30;;;10.70;99.90;;;;;;5072441;28;20930;-81
2022/01/03 06:06:20;;;;;;;2.53;1.40;;;10.60;99.90;;;;;;5071668;28;20489;-82
2022/01/03 06:08:47;;;;;;;6.00;2.83;;;10.60;99.90;;;;;;5072445;28;20453;-81
2022/01/03 06:11:14;;;;;;;5.93;2.50;;;10.50;99.90;;;;;;5071901;28;20441;-82
2022/01/03 06:13:41;;;;;;;4.80;1.63;;;10.50;1.00;;;;;;5072551;28;20449;-82
2022/01/03 06:16:08;;;;;;;5.13;2.13;;;10.40;1.00;;;;;;5071091;28;20537;-82
2022/01/03 06:18:38;;;;;;;7.13;2.17;;;10.40;1.00;;;;;;5072754;28;20441;-81
2022/01/03 06:21:05;;;;;;;4.80;1.90;;;10.50;1.00;;;;;;5058618;28;20556;-81
2022/01/03 06:23:32;;;;;;;3.00;1.70;;;10.50;1.00;;;;;;5072507;28;20812;-81
2022/01/03 06:25:59;;;;;;;4.87;1.60;;;10.40;1.00;;;;;;5074090;28;20516;-82
2022/01/03 06:28:26;;;;;;;3.90;1.67;;;10.40;1.00;;;;;;5088046;28;20461;-82
2022/01/03 06:30:53;;;;;;;4.30;1.77;;;10.40;1.00;;;;;;5088923;28;20505;-78
2022/01/03 06:33:20;;;;;;;6.50;2.63;;;10.50;1.00;;;;;;5079531;28;20449;-81
2022/01/03 06:35:48;;;;;;;4.63;2.83;;;10.60;1.00;;;;;;5071585;28;20964;-81
2022/01/03 06:38:15;;;;;;;4.20;2.43;;;10.60;1.00;;;;;;5071302;28;20533;-82
2022/01/03 06:40:41;;;;;;;3.30;2.17;;;10.60;1.00;;;;;;5072010;28;20457;-82
2022/01/03 06:43:08;;;;;;;5.03;2.63;;;10.60;1.00;;;;;;5071343;28;20452;-81
2022/01/03 06:45:35;;;;;;;6.80;2.50;;;10.50;1.00;;;;;;5071542;28;20517;-82
2022/01/03 06:48:02;;;;;;;5.27;2.47;;;10.40;2.40;;;;;;5070902;28;20532;-81
2022/01/03 06:50:30;;;;;;;6.03;2.10;;;10.40;1.00;;;;;;5071809;28;20447;-82
2022/01/03 06:52:59;;;;;;;6.57;2.60;;;10.50;53.40;;;;;;5071676;28;20481;-81
2022/01/03 06:55:26;;;;;;;5.00;2.60;;;10.40;59.00;;;;;;5071377;28;20495;-82
2022/01/03 06:57:54;;;;;;;10.40;2.93;;;10.20;76.20;;;;;;5071271;28;20709;-82
2022/01/03 07:00:21;;;;;;;3.67;2.00;;;10.30;83.90;;;;;;5070875;28;20844;-82
2022/01/03 07:02:47;;;;;;;7.57;2.67;;;10.30;40.10;;;;;;5071252;28;20981;-82
2022/01/03 07:05:15;;;;;;;9.17;2.60;;;10.20;99.90;;;;;;5070553;28;20583;-82
2022/01/03 07:07:42;;;;;;;4.50;2.13;;;10.10;99.90;;;;;;5071734;28;20457;-82
2022/01/03 07:10:11;;;;;;;9.53;2.33;;;10.00;99.90;;;;;;5070500;28;20446;-82
2022/01/03 07:12:39;;;;;;;7.93;3.10;;;9.90;99.90;;;;;;5071186;28;20445;-81
2022/01/03 07:20:36;;;;;;;5.97;2.57;;;9.80;99.90;;;;;;5071080;28;20797;-81
2022/01/03 07:23:03;;;;;;;6.13;2.90;;;9.70;99.90;;;;;;5070872;28;20452;-80
2022/01/03 07:25:31;;;;;;;7.10;3.07;;;9.70;99.90;;;;;;5070542;28;21038;-82
2022/01/03 07:27:58;;;;;;;6.40;2.33;;;9.80;99.90;;;;;;5071569;28;20456;-82
2022/01/03 07:30:25;;;;;;;11.50;2.20;;;9.70;99.90;;;;;;5070706;28;20893;-82
2022/01/03 07:32:51;;;;;;;3.10;1.70;;;9.70;99.90;;;;;;5071276;28;20457;-82
2022/01/03 07:35:18;;;;;;;4.10;2.13;;;9.70;99.90;;;;;;5070370;28;20453;-81
2022/01/03 07:37:45;;;;;;;6.07;2.13;;;9.70;99.90;;;;;;5071253;28;20639;-79
2022/01/03 07:40:13;;;;;;;5.07;1.80;;;9.80;99.90;;;;;;5070589;28;20445;-82
2022/01/03 07:42:43;;;;;;;8.23;2.10;;;9.80;99.90;;;;;;5073425;28;20804;-82
2022/01/03 07:45:11;;;;;;;3.80;2.63;;;9.70;99.90;;;;;;5074465;28;20836;-82
2022/01/03 07:47:38;;;;;;;3.10;1.70;;;9.80;99.90;;;;;;5075139;28;20445;-82
2022/01/03 07:50:06;;;;;;;5.60;1.90;;;9.70;99.90;;;;;;5074520;28;20514;-83
2022/01/03 07:52:33;;;;;;;7.53;2.80;;;9.60;99.90;;;;;;5075411;28;20481;-82
2022/01/03 07:55:00;;;;;;;8.40;3.30;;;9.70;99.90;;;;;;5074665;28;20449;-81
2022/01/03 07:57:27;;;;;;;7.47;3.30;;;9.60;99.90;;;;;;5075244;28;20529;-81
2022/01/03 07:59:56;;;;;;;6.20;2.80;;;9.80;99.90;;;;;;5075014;28;20441;-82
2022/01/03 08:02:23;;;;;;;5.10;2.23;;;9.80;99.90;;;;;;5074128;28;20441;-81
2022/01/03 08:04:50;;;;;;;13.03;3.13;;;9.70;99.90;;;;;;5074068;28;21006;-82
2022/01/03 08:07:17;;;;;;;6.47;2.00;;;9.70;99.90;;;;;;5074071;28;20937;-82
2022/01/03 08:09:44;;;;;;;7.87;2.50;;;9.70;99.90;;;;;;5074761;28;20447;-82
2022/01/03 08:12:11;;;;;;;8.67;2.70;;;9.70;99.90;;;;;;5074191;28;20810;-82
2022/01/03 08:14:38;;;;;;;4.90;2.60;;;9.70;99.90;;;;;;5074165;28;20449;-81
2022/01/03 08:17:06;;;;;;;6.53;3.20;;;;;;;;;;5074292;28;20453;-81
2022/01/03 08:19:33;;;;;;;15.63;2.80;;;9.70;99.90;;;;;;5074590;28;20441;-81
2022/01/03 08:22:01;;;;;;;7.73;2.33;;;9.80;99.90;;;;;;5074339;28;20457;-82
2022/01/03 08:24:28;;;;;;;7.47;2.50;;;9.70;99.90;;;;;;5074586;28;20453;-82
2022/01/03 08:26:55;;;;;;;4.30;2.47;;;9.50;99.90;;;;;;5074429;28;20487;-82
2022/01/03 08:29:22;;;;;;;4.77;2.37;;;9.50;99.90;;;;;;5073712;28;20445;-82
2022/01/03 08:31:49;;;;;;;12.97;2.70;;;9.50;99.90;;;;;;5073989;28;20449;-82
2022/01/03 08:34:17;;;;;;;6.33;2.07;;;9.50;99.90;;;;;;5073400;28;20441;-80
2022/01/03 08:36:44;;;;;;;7.77;2.00;;;9.40;99.90;;;;;;5074263;28;20448;-80
2022/01/03 08:39:11;;;;;;;5.90;2.60;;;9.50;99.90;;;;;;5073752;28;20448;-81
2022/01/03 08:41:38;;;;;;;6.77;2.10;;;9.60;99.90;;;;;;5074154;28;20453;-82
2022/01/03 08:44:06;;;;;;;5.60;2.90;;;9.80;99.90;;;;;;5072927;28;20896;-81
2022/01/03 08:46:33;;;;;;;5.17;2.10;;;10.00;99.90;;;;;;5074048;28;20495;-81
2022/01/03 08:49:00;;;;;;;6.00;2.00;;;10.00;99.90;;;;;;5074325;28;20820;-82
2022/01/03 08:51:28;;;;;;;8.67;3.07;;;10.20;99.90;;;;;;5073705;28;20957;-80
2022/01/03 08:53:55;;;;;;;4.57;2.50;;;10.90;99.90;;;;;;5072975;28;20959;-82
2022/01/03 08:56:22;;;;;;;8.70;2.60;;;11.00;99.90;;;;;;5073471;28;20456;-82
2022/01/03 08:58:49;;;;;;;8.10;2.23;;;11.00;99.90;;;;;;5073632;28;20922;-81
2022/01/03 09:01:16;;;;;;;7.30;2.40;;;11.10;99.90;;;;;;5073000;28;20445;-80
2022/01/03 09:03:43;;;;;;;9.93;4.70;;;11.30;24.60;;;;;;5073252;28;20528;-82
2022/01/03 09:06:10;;;;;;;7.00;2.13;;;11.00;1.00;;;;;;5072830;28;20481;-82
2022/01/03 09:08:38;;;;;;;5.20;2.50;;;10.80;42.60;;;;;;5073561;28;20458;-82
2022/01/03 09:11:05;;;;;;;7.00;3.23;;;10.80;64.00;;;;;;5072620;28;20960;-81
2022/01/03 09:13:32;;;;;;;7.77;2.67;;;10.80;78.70;;;;;;5073057;28;20446;-81
2022/01/03 09:16:04;;;;;;;9.97;2.43;;;10.80;99.90;;;;;;5073732;28;20456;-82
2022/01/03 09:18:31;;;;;;;4.27;2.37;;;10.90;41.20;;;;;;5073824;28;20457;-78
2022/01/03 09:20:58;;;;;;;7.30;2.40;;;;;;;;;;5073535;28;20454;-82
2022/01/03 09:23:29;;;;;;;9.37;3.23;;;10.80;99.90;;;;;;5073157;28;20457;-82
2022/01/03 09:28:52;;;;;;;9.10;3.33;;;11.00;99.90;;;;;;5073127;28;20433;-82
2022/01/03 09:31:22;;;;;;;8.60;3.00;;;11.00;99.90;;;;;;5072596;28;20929;-81
2022/01/03 09:33:49;;;;;;;4.10;2.30;;;11.10;99.90;;;;;;5072917;28;20453;-83
2022/01/03 09:36:17;;;;;;;4.40;2.30;;;11.10;99.90;;;;;;5072415;28;20452;-81
2022/01/03 09:38:43;;;;;;;5.63;2.50;;;11.10;22.30;;;;;;5072939;28;20986;-83
2022/01/03 09:41:13;;;;;;;5.50;2.40;;;11.30;1.00;;;;;;5072751;28;20806;-82
2022/01/03 09:43:47;;;;;;;3.90;2.47;;;11.30;1.00;;;;;;5072706;28;20803;-82
2022/01/03 09:46:20;;;;;;;5.70;1.73;;;11.30;1.00;;;;;;5072620;28;20591;-82
2022/01/03 09:48:52;;;;;;;5.43;1.60;;;11.30;99.90;;;;;;5072711;28;21040;-82
2022/01/03 09:51:20;;;;;;;4.70;1.50;;;11.40;99.90;;;;;;5072010;28;20461;-82
2022/01/03 09:53:48;;;;;;;7.53;2.33;;;11.50;1.00;;;;;;5072671;28;20442;-74
2022/01/03 09:56:18;;;;;;;6.13;2.10;;;11.50;99.90;;;;;;5072206;28;20536;-82
2022/01/03 09:58:45;;;;;;;7.00;1.70;;;11.40;1.00;;;;;;5072840;28;20449;-82
2022/01/03 10:01:12;;;;;;;2.00;1.03;;;11.50;99.90;;;;;;5072255;28;20453;-82
2022/01/03 10:03:47;;;;;;;2.40;1.70;;;11.60;99.90;;;;;;5071977;28;21031;-80
2022/01/03 10:06:15;;;;;;;5.43;1.73;;;11.60;99.90;;;;;;5071408;28;20512;-82
2022/01/03 10:08:42;;;;;;;5.23;1.53;;;11.60;1.00;;;;;;5072370;28;20940;-83
2022/01/03 10:11:09;;;;;;;2.30;1.30;;;11.60;99.90;;;;;;5071476;28;20935;-82
2022/01/03 10:13:38;;;;;;;3.73;1.43;;;11.70;1.00;;;;;;5072257;28;20450;-82
2022/01/03 10:16:05;;;;;;;5.77;1.93;;;11.80;1.00;;;;;;5071420;28;20461;-82
2022/01/03 10:18:33;;;;;;;5.80;1.50;;;11.70;1.00;;;;;;5072389;28;20446;-81
2022/01/03 10:21:01;;;;;;;3.20;1.20;;;11.80;1.00;;;;;;5072410;28;20523;-82
2022/01/03 10:23:28;;;;;;;3.57;1.67;;;11.80;99.90;;;;;;5071768;28;20963;-82
2022/01/03 10:26:14;;;;;;;5.63;1.70;;;11.80;99.90;;;;;;5071924;28;20564;-83
2022/01/03 10:28:42;;;;;;;3.67;1.20;;;11.90;99.90;;;;;;5072117;28;20822;-83
2022/01/03 10:31:15;;;;;;;4.70;2.20;;;11.90;99.90;;;;;;5071714;28;20532;-82
2022/01/03 10:33:43;;;;;;;4.23;1.47;;;11.90;99.90;;;;;;5071617;28;20454;-83
2022/01/03 10:36:27;;;;;;;2.03;1.10;;;11.90;99.90;;;;;;5071551;28;20456;-82
2022/01/03 10:38:54;;;;;;;5.77;1.80;;;11.90;99.90;;;;;;5072323;28;20442;-82
2022/01/03 10:41:23;;;;;;;2.20;1.00;;;11.90;99.90;;;;;;5071022;28;20658;-83
2022/01/03 10:43:53;;;;;;;2.27;1.20;;;11.90;99.90;;;;;;5058539;28;20456;-80
2022/01/03 10:46:23;;;;;;;2.13;1.73;;;11.90;99.90;;;;;;5070936;28;20976;-83
2022/01/03 10:48:51;;;;;;;4.83;1.83;;;11.90;99.90;;;;;;5072074;28;20473;-83
2022/01/03 10:51:26;;;;;;;6.67;1.93;;;11.90;99.90;;;;;;5070719;28;20468;-82
2022/01/03 10:53:54;;;;;;;5.50;1.43;;;11.90;99.90;;;;;;5071415;28;20449;-83
2022/01/03 10:56:32;;;;;;;3.30;1.30;;;12.00;99.90;;;;;;5071052;28;20465;-82
2022/01/03 10:59:02;;;;;;;5.63;1.40;;;12.10;99.90;;;;;;5072021;28;20486;-83
2022/01/03 11:01:31;;;;;;;7.83;1.50;;;12.10;99.90;;;;;;5071448;28;20929;-82
2022/01/03 11:04:01;;;;;;;1.93;0.90;;;12.20;99.90;;;;;;5071442;28;20805;-82
2022/01/03 11:06:48;;;;;;;7.10;1.40;;;12.20;99.90;;;;;;5058439;28;20913;-83
2022/01/03 11:12:18;;;;;;;3.00;1.20;;;12.20;99.90;;;;;;5070959;28;20491;-83
2022/01/03 11:14:47;;;;;;;3.27;1.30;;;12.20;99.90;;;;;;5071447;28;20801;-83
2022/01/03 11:17:25;;;;;;;2.43;1.10;;;12.20;99.90;;;;;;5070848;28;20536;-83
2022/01/03 11:19:52;;;;;;;3.80;1.80;;;12.20;98.00;;;;;;5071567;28;20503;-82
2022/01/03 11:22:41;;;;;;;2.40;1.10;;;12.30;90.40;;;;;;5070842;28;20449;-82
2022/01/03 11:25:09;;;;;;;2.30;1.20;;;12.30;80.90;;;;;;5065944;28;20528;-83
2022/01/03 11:27:39;;;;;;;3.00;1.70;;;12.40;57.60;;;;;;5071156;28;20484;-83
2022/01/03 11:30:11;;;;;;;7.93;1.47;;;12.40;44.50;;;;;;5070511;28;20934;-82
2022/01/03 11:32:43;;;;;;;3.00;1.40;;;12.50;33.00;;;;;;5071466;28;20442;-83
2022/01/03 11:35:11;;;;;;;4.10;1.50;;;12.40;23.50;;;;;;5070041;28;20957;-83
2022/01/03 11:37:41;;;;;;;3.67;0.90;;;12.50;2.70;;;;;;5071315;28;20464;-83
2022/01/03 11:40:10;;;;;;;6.07;1.33;;;12.50;1.00;;;;;;5070579;28;20461;-82
2022/01/03 11:42:38;;;;;;;5.83;1.70;;;12.60;1.00;;;;;;5071317;28;20450;-82
2022/01/03 11:45:06;;;;;;;3.50;1.23;;;12.60;1.00;;;;;;5070201;28;20537;-82
2022/01/03 11:47:35;;;;;;;2.60;1.30;;;12.70;1.00;;;;;;5071162;28;20915;-82
2022/01/03 11:50:03;;;;;;;4.33;1.47;;;12.60;1.00;;;;;;5070570;28;20454;-83
2022/01/03 11:52:31;;;;;;;4.10;1.20;;;12.70;1.00;;;;;;5070861;28;20568;-82
2022/01/03 11:54:58;;;;;;;2.80;1.27;;;12.70;1.00;;;;;;5070233;28;20455;-82
2022/01/03 11:57:39;;;;;;;4.93;1.40;;;12.70;1.00;;;;;;5070348;28;20461;-83
2022/01/03 12:06:02;;;;;;;3.77;1.20;;;12.80;1.00;;;;;;5025011;28;20942;-83
2022/01/03 12:08:32;;;;;;;2.80;1.10;;;12.80;1.00;;;;;;5053365;28;20446;-82
2022/01/03 12:11:00;;;;;;;1.20;0.90;;;12.70;1.00;;;;;;5070562;28;20453;-82
2022/01/03 12:13:46;;;;;;;3.10;1.20;;;12.70;1.00;;;;;;5070929;28;20453;-82
2022/01/03 12:16:13;;;;;;;1.63;1.33;;;12.70;1.00;;;;;;5070531;28;20481;-81
2022/01/03 12:18:57;;;;;;;1.33;1.10;;;12.70;1.00;;;;;;5071080;28;21001;-81
2022/01/03 12:21:53;;;;;;;2.43;1.03;;;12.70;1.00;;;;;;5070589;28;20491;-82
2022/01/03 12:24:53;;;;;;;2.20;1.10;;;12.70;1.00;;;;;;5056594;28;20452;-82
2022/01/03 12:27:54;;;;;;;5.70;1.67;;;12.70;1.00;;;;;;5069865;28;20476;-82
2022/01/03 12:30:28;;;;;;;5.70;1.23;;;12.70;1.00;;;;;;5073934;28;20792;-82
2022/01/03 12:33:25;;;;;;;1.53;0.80;;;12.60;1.00;;;;;;5074644;28;20438;-81
2022/01/03 12:36:17;;;;;;;2.40;1.27;;;12.60;1.00;;;;;;5074438;28;20540;-82
2022/01/03 12:39:07;;;;;;;3.20;1.17;;;12.60;1.00;;;;;;5073924;28;20964;-82
2022/01/03 12:41:49;;;;;;;3.60;1.27;;;12.60;1.00;;;;;;5073949;28;20520;-82
2022/01/03 12:44:49;;;;;;;3.23;1.60;;;12.60;1.00;;;;;;5073542;28;20441;-80
2022/01/03 12:47:16;;;;;;;3.23;1.10;;;12.60;1.00;;;;;;5073663;28;20491;-81
2022/01/03 12:49:43;;;;;;;3.27;1.70;;;12.70;1.00;;;;;;5073820;28;20463;-82
2022/01/03 12:52:18;;;;;;;7.13;1.83;;;12.60;1.00;;;;;;5073605;28;20567;-80
2022/01/03 12:54:46;;;;;;;6.70;1.73;;;12.60;1.00;;;;;;5073538;28;20530;-81
2022/01/03 12:57:15;;;;;;;2.83;1.23;;;12.50;1.00;;;;;;5073385;28;20987;-82
2022/01/03 12:59:43;;;;;;;3.57;1.60;;;12.60;1.00;;;;;;5074009;28;20551;-82
2022/01/03 13:02:30;;;;;;;6.53;1.10;;;12.50;1.00;;;;;;5073382;28;20454;-83
2022/01/03 13:04:57;;;;;;;8.57;2.00;;;12.60;1.00;;;;;;5073457;28;20445;-82
2022/01/03 13:07:26;;;;;;;3.63;1.40;;;12.60;1.00;;;;;;5072963;28;20485;-81
2022/01/03 13:09:52;;;;;;;2.63;1.07;;;12.70;1.00;;;;;;5073728;28;20552;-82
2022/01/03 13:12:19;;;;;;;1.43;0.87;;;12.60;1.00;;;;;;5073018;28;20759;-82
2022/01/03 13:14:46;;;;;;;3.57;1.40;;;12.60;1.00;;;;;;5073280;28;20453;-82
2022/01/03 13:17:13;;;;;;;2.40;1.43;;;12.70;1.00;;;;;;5073311;28;20540;-82
2022/01/03 13:19:40;;;;;;;3.73;1.57;;;12.70;1.00;;;;;;5074184;28;20532;-82
2022/01/03 13:22:10;;;;;;;2.40;1.20;;;12.70;1.00;;;;;;5073100;28;20457;-83
2022/01/03 13:24:40;;;;;;;2.43;1.00;;;12.80;1.00;;;;;;5072849;28;20455;-82
2022/01/03 13:27:10;;;;;;;6.67;1.73;;;12.80;1.00;;;;;;5072943;28;20480;-83